createdAt,value
2018-03-01T00:00:03.838Z,987.08
2018-03-01T00:01:04.030Z,986.96
2018-03-01T00:02:04.263Z,986.95
2018-03-01T00:03:04.507Z,986.98
2018-03-01T00:04:04.745Z,986.95
2018-03-01T00:05:05.000Z,987.04
2018-03-01T00:06:05.233Z,987.08
2018-03-01T00:07:05.460Z,987.03
2018-03-01T00:08:05.713Z,986.98
2018-03-01T00:09:05.962Z,987.10
2018-03-01T00:10:06.221Z,987.02
2018-03-01T00:11:06.450Z,987.04
2018-03-01T00:12:06.699Z,987.11
2018-03-01T00:13:07.004Z,987.10
2018-03-01T00:14:07.178Z,987.06
2018-03-01T00:15:07.432Z,987.08
2018-03-01T00:16:07.689Z,987.01
2018-03-01T00:17:07.907Z,986.98
2018-03-01T00:18:08.135Z,986.98
2018-03-01T00:19:08.401Z,986.97
2018-03-01T00:20:08.634Z,986.90
2018-03-01T00:21:08.868Z,986.94
2018-03-01T00:22:09.116Z,986.88
2018-03-01T00:23:09.332Z,986.90
2018-03-01T00:24:09.595Z,986.91
2018-03-01T00:25:09.806Z,986.93
2018-03-01T00:26:10.042Z,986.83
2018-03-01T00:27:10.304Z,986.86
2018-03-01T00:28:10.540Z,986.77
2018-03-01T00:29:10.779Z,986.85
2018-03-01T00:30:11.034Z,986.83
2018-03-01T00:31:11.264Z,986.83
2018-03-01T00:32:11.487Z,986.78
2018-03-01T00:33:11.713Z,986.71
2018-03-01T00:34:11.992Z,986.67
2018-03-01T00:35:12.268Z,986.68
2018-03-01T00:36:12.437Z,986.61
2018-03-01T00:37:12.724Z,986.63
2018-03-01T00:38:12.932Z,986.58
2018-03-01T00:39:13.167Z,986.66
2018-03-01T00:40:13.398Z,986.75
2018-03-01T00:41:13.634Z,986.65
2018-03-01T00:42:13.880Z,986.72
2018-03-01T00:43:14.114Z,986.70
2018-03-01T00:44:14.352Z,986.64
2018-03-01T00:45:14.612Z,986.64
2018-03-01T00:46:14.847Z,986.62
2018-03-01T00:47:15.079Z,986.60
2018-03-01T00:48:15.307Z,986.61
2018-03-01T00:49:15.532Z,986.61
2018-03-01T00:50:15.788Z,986.62
2018-03-01T00:51:16.038Z,986.57
2018-03-01T00:52:16.282Z,986.59
2018-03-01T00:53:16.502Z,986.51
2018-03-01T00:54:16.744Z,986.64
2018-03-01T00:55:16.989Z,986.54
2018-03-01T00:56:17.241Z,986.53
2018-03-01T00:57:17.468Z,986.50
2018-03-01T00:58:17.703Z,986.52
2018-03-01T00:59:17.936Z,986.46
2018-03-01T01:00:18.211Z,986.43
2018-03-01T01:01:18.432Z,986.42
2018-03-01T01:02:18.670Z,986.43
2018-03-01T01:03:18.926Z,986.47
2018-03-01T01:04:19.240Z,986.48
2018-03-01T01:05:19.394Z,986.33
2018-03-01T01:06:19.626Z,986.36
2018-03-01T01:07:19.879Z,986.38
2018-03-01T01:08:20.120Z,986.41
2018-03-01T01:09:20.349Z,986.44
2018-03-01T01:10:20.578Z,986.39
2018-03-01T01:11:20.832Z,986.34
2018-03-01T01:12:21.096Z,986.31
2018-03-01T01:13:21.309Z,986.37
2018-03-01T01:14:21.535Z,986.31
2018-03-01T01:15:21.785Z,986.35
2018-03-01T01:16:22.038Z,986.30
2018-03-01T01:17:22.263Z,986.18
2018-03-01T01:18:22.504Z,986.11
2018-03-01T01:19:22.752Z,986.21
2018-03-01T01:20:23.004Z,986.22
2018-03-01T01:21:23.211Z,986.19
2018-03-01T01:22:23.478Z,986.15
2018-03-01T01:23:23.714Z,986.14
2018-03-01T01:24:23.952Z,986.13
2018-03-01T01:25:24.164Z,986.09
2018-03-01T01:26:24.412Z,986.14
2018-03-01T01:27:24.660Z,986.08
2018-03-01T01:28:24.892Z,986.07
2018-03-01T01:29:25.138Z,985.97
2018-03-01T01:30:25.391Z,985.91
2018-03-01T01:31:25.627Z,985.88
2018-03-01T01:32:25.857Z,985.90
2018-03-01T01:33:26.130Z,985.91
2018-03-01T01:34:26.343Z,985.79
2018-03-01T01:35:26.570Z,985.73
2018-03-01T01:36:26.881Z,985.75
2018-03-01T01:37:27.072Z,985.71
2018-03-01T01:38:27.297Z,985.64
2018-03-01T01:39:27.531Z,985.61
2018-03-01T01:40:27.788Z,985.59
2018-03-01T01:41:28.023Z,985.58
2018-03-01T01:42:28.279Z,985.60
2018-03-01T01:43:28.536Z,985.62
2018-03-01T01:44:28.797Z,985.52
2018-03-01T01:45:29.011Z,985.57
2018-03-01T01:46:29.267Z,985.52
2018-03-01T01:47:29.518Z,985.54
2018-03-01T01:48:29.748Z,985.51
2018-03-01T01:49:29.976Z,985.53
2018-03-01T01:50:30.223Z,985.56
2018-03-01T01:51:30.456Z,985.53
2018-03-01T01:52:30.710Z,985.46
2018-03-01T01:53:30.936Z,985.56
2018-03-01T01:54:31.208Z,985.51
2018-03-01T01:55:31.429Z,985.30
2018-03-01T01:56:31.647Z,985.51
2018-03-01T01:57:31.897Z,985.48
2018-03-01T01:58:32.143Z,985.46
2018-03-01T01:59:32.402Z,985.52
2018-03-01T02:00:32.671Z,985.42
2018-03-01T02:01:32.839Z,985.47
2018-03-01T02:02:33.093Z,985.53
2018-03-01T02:03:33.314Z,985.46
2018-03-01T02:04:33.541Z,985.41
2018-03-01T02:05:33.807Z,985.44
2018-03-01T02:06:34.051Z,985.47
2018-03-01T02:07:34.291Z,985.38
2018-03-01T02:08:34.538Z,985.33
2018-03-01T02:09:34.780Z,985.36
2018-03-01T02:10:35.022Z,985.29
2018-03-01T02:11:35.267Z,985.34
2018-03-01T02:12:35.511Z,985.31
2018-03-01T02:13:35.771Z,985.27
2018-03-01T02:14:35.962Z,985.31
2018-03-01T02:15:36.214Z,985.33
2018-03-01T02:16:36.452Z,985.28
2018-03-01T02:17:36.713Z,985.39
2018-03-01T02:18:36.967Z,985.30
2018-03-01T02:19:37.183Z,985.38
2018-03-01T02:20:37.445Z,985.41
2018-03-01T02:21:37.667Z,985.46
2018-03-01T02:22:37.915Z,985.19
2018-03-01T02:23:38.152Z,985.41
2018-03-01T02:24:38.383Z,985.30
2018-03-01T02:25:38.640Z,985.42
2018-03-01T02:26:38.922Z,985.38
2018-03-01T02:27:39.089Z,985.39
2018-03-01T02:28:39.330Z,985.40
2018-03-01T02:29:39.586Z,985.44
2018-03-01T02:30:39.843Z,985.39
2018-03-01T02:31:40.098Z,985.45
2018-03-01T02:32:40.303Z,985.42
2018-03-01T02:33:40.552Z,985.27
2018-03-01T02:34:40.797Z,985.49
2018-03-01T02:35:41.016Z,985.46
2018-03-01T02:36:41.242Z,985.54
2018-03-01T02:37:41.486Z,985.45
2018-03-01T02:38:41.733Z,985.43
2018-03-01T02:39:41.969Z,985.44
2018-03-01T02:40:42.222Z,985.55
2018-03-01T02:41:42.472Z,985.56
2018-03-01T02:42:42.710Z,985.60
2018-03-01T02:43:42.939Z,985.62
2018-03-01T02:44:43.158Z,985.67
2018-03-01T02:45:43.418Z,985.73
2018-03-01T02:46:43.703Z,985.63
2018-03-01T02:47:43.878Z,985.59
2018-03-01T02:48:44.149Z,985.66
2018-03-01T02:49:44.407Z,985.64
2018-03-01T02:50:44.695Z,985.56
2018-03-01T02:51:44.879Z,985.59
2018-03-01T02:52:45.125Z,985.49
2018-03-01T02:53:45.380Z,985.52
2018-03-01T02:54:45.616Z,985.49
2018-03-01T02:55:45.853Z,985.49
2018-03-01T02:56:46.091Z,985.43
2018-03-01T02:57:46.342Z,985.44
2018-03-01T02:58:46.597Z,985.37
2018-03-01T02:59:46.826Z,985.38
2018-03-01T03:00:47.088Z,985.39
2018-03-01T03:01:47.342Z,985.39
2018-03-01T03:02:47.565Z,985.40
2018-03-01T03:03:47.824Z,985.42
2018-03-01T03:04:48.073Z,985.37
2018-03-01T03:05:48.298Z,985.44
2018-03-01T03:06:48.556Z,985.34
2018-03-01T03:07:48.791Z,985.33
2018-03-01T03:08:49.035Z,985.31
2018-03-01T03:09:49.288Z,985.29
2018-03-01T03:10:49.533Z,985.28
2018-03-01T03:11:49.768Z,985.35
2018-03-01T03:12:49.995Z,985.27
2018-03-01T03:13:50.259Z,985.32
2018-03-01T03:14:50.461Z,985.28
2018-03-01T03:15:50.721Z,985.28
2018-03-01T03:16:50.964Z,985.31
2018-03-01T03:17:51.195Z,985.29
2018-03-01T03:18:51.451Z,985.23
2018-03-01T03:19:51.686Z,985.18
2018-03-01T03:20:51.951Z,985.16
2018-03-01T03:21:52.211Z,985.21
2018-03-01T03:22:52.391Z,985.22
2018-03-01T03:23:52.637Z,985.25
2018-03-01T03:24:52.873Z,985.20
2018-03-01T03:25:53.108Z,985.20
2018-03-01T03:26:53.368Z,985.25
2018-03-01T03:27:53.587Z,985.21
2018-03-01T03:28:53.817Z,985.20
2018-03-01T03:29:54.077Z,985.24
2018-03-01T03:30:54.318Z,985.27
2018-03-01T03:31:54.538Z,985.25
2018-03-01T03:32:54.778Z,985.30
2018-03-01T03:33:55.006Z,985.26
2018-03-01T03:34:55.264Z,985.26
2018-03-01T03:35:55.471Z,985.20
2018-03-01T03:36:55.732Z,985.18
2018-03-01T03:37:55.959Z,985.10
2018-03-01T03:38:56.205Z,985.07
2018-03-01T03:39:56.464Z,985.07
2018-03-01T03:40:56.703Z,985.08
2018-03-01T03:41:56.940Z,985.05
2018-03-01T03:43:00.366Z,985.02
2018-03-01T03:43:57.637Z,985.01
2018-03-01T03:44:57.865Z,984.97
2018-03-01T03:45:58.088Z,984.93
2018-03-01T03:47:01.014Z,984.91
2018-03-01T03:47:58.829Z,984.91
2018-03-01T03:48:58.970Z,984.79
2018-03-01T03:49:59.231Z,984.82
2018-03-01T03:50:59.456Z,984.83
2018-03-01T03:51:59.679Z,984.80
2018-03-01T03:52:59.940Z,984.79
2018-03-01T03:54:00.174Z,984.73
2018-03-01T03:55:00.427Z,984.79
2018-03-01T03:56:00.700Z,984.76
2018-03-01T03:57:00.910Z,984.69
2018-03-01T03:58:01.162Z,984.72
2018-03-01T03:59:01.437Z,984.74
2018-03-01T04:00:03.911Z,984.68
2018-03-01T04:01:02.004Z,984.66
2018-03-01T04:02:02.275Z,984.71
2018-03-01T04:03:02.490Z,984.70
2018-03-01T04:04:02.726Z,984.59
2018-03-01T04:05:02.958Z,984.59
2018-03-01T04:06:03.216Z,984.59
2018-03-01T04:07:03.456Z,984.58
2018-03-01T04:08:03.668Z,984.46
2018-03-01T04:09:03.908Z,984.55
2018-03-01T04:10:04.144Z,984.45
2018-03-01T04:11:04.394Z,984.48
2018-03-01T04:12:04.626Z,984.38
2018-03-01T04:13:04.869Z,984.33
2018-03-01T04:14:05.134Z,984.41
2018-03-01T04:15:05.347Z,984.41
2018-03-01T04:16:05.600Z,984.29
2018-03-01T04:17:05.837Z,984.33
2018-03-01T04:18:06.082Z,984.32
2018-03-01T04:19:06.348Z,984.23
2018-03-01T04:20:06.568Z,984.23
2018-03-01T04:21:06.804Z,984.29
2018-03-01T04:22:07.067Z,984.20
2018-03-01T04:23:07.311Z,984.19
2018-03-01T04:24:07.511Z,984.26
2018-03-01T04:25:07.771Z,984.35
2018-03-01T04:26:08.012Z,984.22
2018-03-01T04:27:08.319Z,984.29
2018-03-01T04:28:08.528Z,984.27
2018-03-01T04:29:08.795Z,984.29
2018-03-01T04:30:09.033Z,984.15
2018-03-01T04:31:09.305Z,984.14
2018-03-01T04:32:09.517Z,984.19
2018-03-01T04:33:09.742Z,984.18
2018-03-01T04:34:10.108Z,984.16
2018-03-01T04:35:10.394Z,984.04
2018-03-01T04:36:10.631Z,984.23
2018-03-01T04:37:10.838Z,984.24
2018-03-01T04:38:11.096Z,984.25
2018-03-01T04:39:11.343Z,984.26
2018-03-01T04:40:11.571Z,984.25
2018-03-01T04:41:11.830Z,984.18
2018-03-01T04:42:12.077Z,984.15
2018-03-01T04:43:12.301Z,984.18
2018-03-01T04:44:12.528Z,984.14
2018-03-01T04:45:12.777Z,984.18
2018-03-01T04:46:13.025Z,984.11
2018-03-01T04:47:13.263Z,984.13
2018-03-01T04:48:13.486Z,984.09
2018-03-01T04:49:13.730Z,984.14
2018-03-01T04:50:13.950Z,984.15
2018-03-01T04:51:14.202Z,984.15
2018-03-01T04:52:14.439Z,984.20
2018-03-01T04:53:14.666Z,984.08
2018-03-01T04:54:14.930Z,984.14
2018-03-01T04:55:15.163Z,983.97
2018-03-01T04:56:18.634Z,984.04
2018-03-01T04:57:15.625Z,983.98
2018-03-01T04:58:15.878Z,984.01
2018-03-01T04:59:16.106Z,983.99
2018-03-01T05:00:16.372Z,983.90
2018-03-01T05:01:16.616Z,983.89
2018-03-01T05:02:16.842Z,983.89
2018-03-01T05:03:17.074Z,983.88
2018-03-01T05:04:17.312Z,983.82
2018-03-01T05:05:17.562Z,983.80
2018-03-01T05:06:17.795Z,983.79
2018-03-01T05:07:21.085Z,983.80
2018-03-01T05:08:18.367Z,983.82
2018-03-01T05:09:18.623Z,983.79
2018-03-01T05:10:18.850Z,983.82
2018-03-01T05:11:19.073Z,983.74
2018-03-01T05:12:19.322Z,983.74
2018-03-01T05:13:19.575Z,983.68
2018-03-01T05:14:20.740Z,983.76
2018-03-01T05:15:20.059Z,983.76
2018-03-01T05:16:20.324Z,983.74
2018-03-01T05:17:20.535Z,983.78
2018-03-01T05:18:21.209Z,983.79
2018-03-01T05:19:21.193Z,983.80
2018-03-01T05:20:21.426Z,983.79
2018-03-01T05:21:21.661Z,983.79
2018-03-01T05:22:21.906Z,983.71
2018-03-01T05:23:22.186Z,983.66
2018-03-01T05:24:22.378Z,983.60
2018-03-01T05:25:22.614Z,983.65
2018-03-01T05:26:22.856Z,983.63
2018-03-01T05:27:23.072Z,983.57
2018-03-01T05:28:23.340Z,983.55
2018-03-01T05:29:23.572Z,983.42
2018-03-01T05:30:23.796Z,983.50
2018-03-01T05:31:24.026Z,983.47
2018-03-01T05:32:24.277Z,983.48
2018-03-01T05:33:24.535Z,983.48
2018-03-01T05:34:26.651Z,983.44
2018-03-01T05:35:25.008Z,983.44
2018-03-01T05:36:25.256Z,983.42
2018-03-01T05:37:25.688Z,983.43
2018-03-01T05:38:25.846Z,983.42
2018-03-01T05:39:27.939Z,983.43
2018-03-01T05:40:26.481Z,983.36
2018-03-01T05:41:27.041Z,983.39
2018-03-01T05:42:27.045Z,983.43
2018-03-01T05:43:27.236Z,983.45
2018-03-01T05:44:27.454Z,983.28
2018-03-01T05:45:27.680Z,983.26
2018-03-01T05:46:27.942Z,983.31
2018-03-01T05:47:28.168Z,983.29
2018-03-01T05:48:28.489Z,983.33
2018-03-01T05:49:28.742Z,983.25
2018-03-01T05:50:28.855Z,983.36
2018-03-01T05:51:29.126Z,983.26
2018-03-01T05:52:29.378Z,983.31
2018-03-01T05:53:29.606Z,983.29
2018-03-01T05:54:29.810Z,983.31
2018-03-01T05:55:30.073Z,983.20
2018-03-01T05:56:30.541Z,983.14
2018-03-01T05:57:30.540Z,983.19
2018-03-01T05:58:30.783Z,983.14
2018-03-01T05:59:31.029Z,983.20
2018-03-01T06:00:31.282Z,983.23
2018-03-01T06:01:38.702Z,983.18
2018-03-01T06:02:34.256Z,983.21
2018-03-01T06:05:04.006Z,983.36
2018-03-01T06:06:04.091Z,983.36
2018-03-01T06:07:04.285Z,983.41
2018-03-01T06:08:04.501Z,983.41
2018-03-01T06:09:04.790Z,983.36
2018-03-01T06:10:05.000Z,983.36
2018-03-01T06:11:05.249Z,983.28
2018-03-01T06:12:05.458Z,983.24
2018-03-01T06:13:05.755Z,983.27
2018-03-01T06:14:05.939Z,983.16
2018-03-01T06:15:06.714Z,983.12
2018-03-01T06:16:06.565Z,983.14
2018-03-01T06:17:06.806Z,983.08
2018-03-01T06:18:07.063Z,983.10
2018-03-01T06:19:07.332Z,983.18
2018-03-01T06:20:07.667Z,983.16
2018-03-01T06:21:07.835Z,983.09
2018-03-01T06:22:08.067Z,983.09
2018-03-01T06:23:08.385Z,983.00
2018-03-01T06:24:08.585Z,983.10
2018-03-01T06:25:08.791Z,983.04
2018-03-01T06:26:09.068Z,983.11
2018-03-01T06:27:11.150Z,983.12
2018-03-01T06:28:09.492Z,983.09
2018-03-01T06:29:09.806Z,983.11
2018-03-01T06:30:09.982Z,983.07
2018-03-01T06:31:10.797Z,983.10
2018-03-01T06:32:10.446Z,982.96
2018-03-01T06:33:10.690Z,982.89
2018-03-01T06:34:10.967Z,982.97
2018-03-01T06:35:11.145Z,982.73
2018-03-01T06:36:11.410Z,982.84
2018-03-01T06:37:11.663Z,982.82
2018-03-01T06:38:11.869Z,982.93
2018-03-01T06:39:12.092Z,982.89
2018-03-01T06:40:15.082Z,982.89
2018-03-01T06:41:12.863Z,982.89
2018-03-01T06:42:15.282Z,982.76
2018-03-01T06:43:21.722Z,982.87
2018-03-01T06:45:45.302Z,982.91
2018-03-01T06:46:45.418Z,982.93
2018-03-01T06:47:47.730Z,982.88
2018-03-01T06:48:46.090Z,982.93
2018-03-01T06:49:46.458Z,982.93
2018-03-01T06:50:46.736Z,982.94
2018-03-01T06:54:20.099Z,983.04
2018-03-01T06:55:19.760Z,982.97
2018-03-01T06:56:19.775Z,983.02
2018-03-01T06:57:20.032Z,983.13
2018-03-01T06:58:20.811Z,982.99
2018-03-01T06:59:20.584Z,983.07
2018-03-01T07:00:20.832Z,983.09
2018-03-01T07:01:21.069Z,983.00
2018-03-01T07:02:21.325Z,983.06
2018-03-01T07:03:21.532Z,983.08
2018-03-01T07:04:21.822Z,983.06
2018-03-01T07:05:22.051Z,983.06
2018-03-01T07:06:22.402Z,983.00
2018-03-01T07:07:22.517Z,983.01
2018-03-01T07:08:22.786Z,983.09
2018-03-01T07:09:23.021Z,983.02
2018-03-01T07:10:23.307Z,983.00
2018-03-01T07:11:23.531Z,982.93
2018-03-01T07:12:23.736Z,982.95
2018-03-01T07:13:23.912Z,983.02
2018-03-01T07:14:24.167Z,982.96
2018-03-01T07:15:24.514Z,982.98
2018-03-01T07:16:24.670Z,982.92
2018-03-01T07:17:24.952Z,982.88
2018-03-01T07:18:25.211Z,982.90
2018-03-01T07:19:25.423Z,982.93
2018-03-01T07:20:25.651Z,982.77
2018-03-01T07:21:25.914Z,982.87
2018-03-01T07:22:26.115Z,982.95
2018-03-01T07:23:26.607Z,982.94
2018-03-01T07:24:26.720Z,982.93
2018-03-01T07:25:26.867Z,982.83
2018-03-01T07:26:27.578Z,983.01
2018-03-01T07:27:27.657Z,983.00
2018-03-01T07:28:27.906Z,982.90
2018-03-01T07:29:27.992Z,982.99
2018-03-01T07:30:28.393Z,982.93
2018-03-01T07:31:28.558Z,983.00
2018-03-01T07:32:29.658Z,983.03
2018-03-01T07:33:29.002Z,982.98
2018-03-01T07:34:29.246Z,982.97
2018-03-01T07:35:29.488Z,982.98
2018-03-01T07:36:29.668Z,983.00
2018-03-01T07:37:29.909Z,983.01
2018-03-01T07:38:30.367Z,982.98
2018-03-01T07:39:30.439Z,983.02
2018-03-01T07:40:30.820Z,982.99
2018-03-01T07:41:31.133Z,982.99
2018-03-01T07:42:31.351Z,982.99
2018-03-01T07:43:31.680Z,983.05
2018-03-01T07:44:31.919Z,983.03
2018-03-01T07:45:32.258Z,982.76
2018-03-01T07:46:32.583Z,983.07
2018-03-01T07:47:32.596Z,982.95
2018-03-01T07:48:32.898Z,982.97
2018-03-01T07:49:33.123Z,982.78
2018-03-01T07:50:33.448Z,982.90
2018-03-01T07:51:33.738Z,982.93
2018-03-01T07:52:33.977Z,982.88
2018-03-01T07:53:34.103Z,982.86
2018-03-01T07:54:34.379Z,982.88
2018-03-01T07:55:34.686Z,982.80
2018-03-01T07:56:34.942Z,982.68
2018-03-01T07:57:35.115Z,982.79
2018-03-01T07:58:35.333Z,982.85
2018-03-01T07:59:35.642Z,982.81
2018-03-01T08:00:35.807Z,982.80
2018-03-01T08:01:38.574Z,982.92
2018-03-01T08:02:36.498Z,982.83
2018-03-01T08:03:36.715Z,982.79
2018-03-01T08:04:36.947Z,982.72
2018-03-01T08:05:37.311Z,982.82
2018-03-01T08:06:37.520Z,982.76
2018-03-01T08:07:37.865Z,982.73
2018-03-01T08:08:38.106Z,982.80
2018-03-01T08:09:38.482Z,982.58
2018-03-01T08:10:38.594Z,982.69
2018-03-01T08:11:38.833Z,982.81
2018-03-01T08:12:39.263Z,982.78
2018-03-01T08:13:39.350Z,982.80
2018-03-01T08:14:39.546Z,982.82
2018-03-01T08:15:39.794Z,982.85
2018-03-01T08:16:40.043Z,982.82
2018-03-01T08:17:40.230Z,982.73
2018-03-01T08:18:40.504Z,982.67
2018-03-01T08:19:40.749Z,982.78
2018-03-01T08:20:41.002Z,982.69
2018-03-01T08:21:41.305Z,982.57
2018-03-01T08:22:41.644Z,982.49
2018-03-01T08:23:41.804Z,982.55
2018-03-01T08:24:42.014Z,982.56
2018-03-01T08:25:42.269Z,982.55
2018-03-01T08:26:42.583Z,982.50
2018-03-01T08:27:42.895Z,982.52
2018-03-01T08:28:43.010Z,982.54
2018-03-01T08:29:43.235Z,982.50
2018-03-01T08:30:43.750Z,982.47
2018-03-01T08:31:43.794Z,982.48
2018-03-01T08:32:43.960Z,982.40
2018-03-01T08:33:44.200Z,982.42
2018-03-01T08:34:44.454Z,982.32
2018-03-01T08:35:45.192Z,982.37
2018-03-01T08:36:45.152Z,982.21
2018-03-01T08:37:45.374Z,982.41
2018-03-01T08:38:45.775Z,982.38
2018-03-01T08:39:46.520Z,982.34
2018-03-01T08:40:46.318Z,982.34
2018-03-01T08:41:46.421Z,982.29
2018-03-01T08:42:46.908Z,982.12
2018-03-01T08:43:47.164Z,982.37
2018-03-01T08:44:47.271Z,982.23
2018-03-01T08:45:47.640Z,982.32
2018-03-01T08:46:47.852Z,982.34
2018-03-01T08:47:48.008Z,982.26
2018-03-01T08:48:48.396Z,982.20
2018-03-01T08:49:48.564Z,982.35
2018-03-01T08:50:49.934Z,982.37
2018-03-01T08:51:49.167Z,982.28
2018-03-01T08:52:49.409Z,982.27
2018-03-01T08:53:49.705Z,982.25
2018-03-01T08:54:49.890Z,982.28
2018-03-01T08:55:50.642Z,982.27
2018-03-01T08:56:50.434Z,982.29
2018-03-01T08:57:50.817Z,982.32
2018-03-01T08:58:51.234Z,982.27
2018-03-01T08:59:51.418Z,982.21
2018-03-01T09:01:00.692Z,982.11
2018-03-01T09:01:52.050Z,982.27
2018-03-01T09:02:52.447Z,982.12
2018-03-01T09:03:52.502Z,982.19
2018-03-01T09:04:52.798Z,982.12
2018-03-01T09:05:53.051Z,982.16
2018-03-01T09:06:53.240Z,982.11
2018-03-01T09:07:56.418Z,982.01
2018-03-01T09:08:53.786Z,982.06
2018-03-01T09:09:54.061Z,982.04
2018-03-01T09:10:54.263Z,982.06
2018-03-01T09:11:54.767Z,981.97
2018-03-01T09:12:57.944Z,981.87
2018-03-01T09:13:55.047Z,982.05
2018-03-01T09:14:55.412Z,982.03
2018-03-01T09:15:55.615Z,982.01
2018-03-01T09:16:56.347Z,981.95
2018-03-01T09:17:56.151Z,982.12
2018-03-01T09:18:56.411Z,981.96
2018-03-01T09:19:58.480Z,981.94
2018-03-01T09:20:57.241Z,981.88
2018-03-01T09:21:57.614Z,981.96
2018-03-01T09:22:57.536Z,982.20
2018-03-01T09:23:57.780Z,981.91
2018-03-01T09:24:58.044Z,981.90
2018-03-01T09:25:58.283Z,981.93
2018-03-01T09:26:58.464Z,981.92
2018-03-01T09:27:58.810Z,981.94
2018-03-01T09:28:59.932Z,981.94
2018-03-01T09:29:59.244Z,981.99
2018-03-01T09:31:02.675Z,981.80
2018-03-01T09:32:00.648Z,981.77
2018-03-01T09:33:00.533Z,981.89
2018-03-01T09:34:03.885Z,981.87
2018-03-01T09:35:02.241Z,981.83
2018-03-01T09:36:03.403Z,981.78
2018-03-01T09:37:01.954Z,981.82
2018-03-01T09:38:02.060Z,981.85
2018-03-01T09:39:02.215Z,981.78
2018-03-01T09:40:02.847Z,981.80
2018-03-01T09:41:03.014Z,981.79
2018-03-01T09:42:03.499Z,981.71
2018-03-01T09:43:03.506Z,981.84
2018-03-01T09:44:03.889Z,981.69
2018-03-01T09:45:03.976Z,981.65
2018-03-01T09:46:04.117Z,981.59
2018-03-01T09:47:04.729Z,981.65
2018-03-01T09:48:05.079Z,981.34
2018-03-01T09:49:05.107Z,981.67
2018-03-01T09:50:05.300Z,981.62
2018-03-01T09:51:05.982Z,981.61
2018-03-01T09:52:08.558Z,981.78
2018-03-01T09:53:06.365Z,981.68
2018-03-01T09:54:06.858Z,981.70
2018-03-01T09:55:08.754Z,981.56
2018-03-01T09:56:07.485Z,981.70
2018-03-01T09:57:07.622Z,981.68
2018-03-01T09:58:07.836Z,981.66
2018-03-01T09:59:08.549Z,981.69
2018-03-01T10:00:11.630Z,981.69
2018-03-01T10:01:08.877Z,981.67
2018-03-01T10:02:09.152Z,981.59
2018-03-01T10:03:09.468Z,981.71
2018-03-01T10:04:09.550Z,981.67
2018-03-01T10:05:10.447Z,981.70
2018-03-01T10:06:10.351Z,981.67
2018-03-01T10:07:11.485Z,981.61
2018-03-01T10:08:10.837Z,981.67
2018-03-01T10:09:11.586Z,981.68
2018-03-01T10:10:13.125Z,981.61
2018-03-01T10:11:11.930Z,981.60
2018-03-01T10:12:12.139Z,981.54
2018-03-01T10:13:12.456Z,981.56
2018-03-01T10:14:13.444Z,981.54
2018-03-01T10:15:13.296Z,981.44
2018-03-01T10:16:13.390Z,981.46
2018-03-01T10:17:14.162Z,981.35
2018-03-01T10:18:14.109Z,981.46
2018-03-01T10:19:14.407Z,981.51
2018-03-01T10:20:17.781Z,981.43
2018-03-01T10:21:16.041Z,981.52
2018-03-01T10:22:15.511Z,981.40
2018-03-01T10:23:15.732Z,981.27
2018-03-01T10:24:15.843Z,981.35
2018-03-01T10:25:16.205Z,981.37
2018-03-01T10:26:16.442Z,981.35
2018-03-01T10:27:16.807Z,981.37
2018-03-01T10:28:16.840Z,981.39
2018-03-01T10:29:18.559Z,981.34
2018-03-01T10:30:19.203Z,981.44
2018-03-01T10:31:22.212Z,981.45
2018-03-01T10:32:18.940Z,981.37
2018-03-01T10:33:18.598Z,981.34
2018-03-01T10:34:20.741Z,981.39
2018-03-01T10:35:20.457Z,981.26
2018-03-01T10:36:20.556Z,981.23
2018-03-01T10:37:21.894Z,981.25
2018-03-01T10:38:19.969Z,981.25
2018-03-01T10:39:20.170Z,981.35
2018-03-01T10:40:21.995Z,981.28
2018-03-01T10:41:22.537Z,981.19
2018-03-01T10:42:21.043Z,981.25
2018-03-01T10:43:21.372Z,981.12
2018-03-01T10:44:24.076Z,981.01
2018-03-01T10:45:25.647Z,981.01
2018-03-01T10:46:30.377Z,981.07
2018-03-01T10:47:25.429Z,981.08
2018-03-01T10:48:24.028Z,981.15
2018-03-01T10:49:25.300Z,981.14
2018-03-01T10:50:25.482Z,981.02
2018-03-01T10:51:25.820Z,980.95
2018-03-01T10:52:24.715Z,980.94
2018-03-01T10:53:26.361Z,981.01
2018-03-01T10:54:29.062Z,981.00
2018-03-01T10:55:27.334Z,980.91
2018-03-01T10:56:26.226Z,980.91
2018-03-01T10:57:26.161Z,980.99
2018-03-01T10:58:27.617Z,980.87
2018-03-01T10:59:27.761Z,980.92
2018-03-01T11:00:28.640Z,981.01
2018-03-01T11:01:26.852Z,980.90
2018-03-01T11:02:28.807Z,980.81
2018-03-01T11:03:27.549Z,980.86
2018-03-01T11:04:28.045Z,980.97
2018-03-01T11:05:27.828Z,981.01
2018-03-01T11:06:29.344Z,980.89
2018-03-01T11:07:28.534Z,981.04
2018-03-01T11:08:28.773Z,980.87
2018-03-01T11:09:29.026Z,980.70
2018-03-01T11:10:31.626Z,980.75
2018-03-01T11:11:29.799Z,980.74
2018-03-01T11:12:33.181Z,980.72
2018-03-01T11:13:33.106Z,980.76
2018-03-01T11:21:26.790Z,980.72
2018-03-01T11:22:20.469Z,980.73
2018-03-01T11:23:22.130Z,980.61
2018-03-01T11:24:20.409Z,980.66
2018-03-01T11:25:20.504Z,980.54
2018-03-01T11:26:31.226Z,980.50
2018-03-01T11:27:21.018Z,980.47
2018-03-01T11:28:21.457Z,980.47
2018-03-01T11:29:21.979Z,980.51
2018-03-01T11:30:56.548Z,980.50
2018-03-01T11:33:31.131Z,980.55
2018-03-01T11:50:16.840Z,980.26
2018-03-01T11:50:49.845Z,980.01
2018-03-01T11:51:51.410Z,980.07
2018-03-01T11:52:50.271Z,979.93
2018-03-01T11:54:00.765Z,980.12
2018-03-01T11:54:50.706Z,980.13
2018-03-01T11:55:51.227Z,980.00
2018-03-01T11:56:51.395Z,980.12
2018-03-01T11:57:52.186Z,980.18
2018-03-01T11:58:52.098Z,980.37
2018-03-01T11:59:54.863Z,980.04
2018-03-01T12:00:52.988Z,980.07
2018-03-01T12:01:53.013Z,980.01
2018-03-01T12:02:53.229Z,979.75
2018-03-01T12:03:56.254Z,980.08
2018-03-01T12:04:57.552Z,979.63
2018-03-01T12:05:54.342Z,980.13
2018-03-01T12:06:54.230Z,980.10
2018-03-01T12:08:54.722Z,980.04
2018-03-01T12:09:56.910Z,980.00
2018-03-01T12:10:55.331Z,979.94
2018-03-01T12:11:55.817Z,979.51
2018-03-01T12:12:56.174Z,980.00
2018-03-01T12:13:59.264Z,979.77
2018-03-01T12:18:06.047Z,979.78
2018-03-01T12:20:06.286Z,979.65
2018-03-01T12:21:04.394Z,979.76
2018-03-01T12:22:01.924Z,979.67
2018-03-01T12:23:03.184Z,979.73
2018-03-01T12:24:02.641Z,979.67
2018-03-01T12:25:02.652Z,979.61
2018-03-01T12:26:02.924Z,979.64
2018-03-01T12:27:04.058Z,979.61
2018-03-01T12:28:03.925Z,979.56
2018-03-01T12:29:04.102Z,979.56
2018-03-01T12:30:04.455Z,979.60
2018-03-01T12:31:06.035Z,979.50
2018-03-01T12:32:04.859Z,979.62
2018-03-01T12:33:05.505Z,979.71
2018-03-01T12:34:07.572Z,979.67
2018-03-01T12:35:05.848Z,979.63
2018-03-01T12:36:06.167Z,979.58
2018-03-01T12:37:06.620Z,979.44
2018-03-01T12:38:06.642Z,979.48
2018-03-01T12:39:07.586Z,979.57
2018-03-01T12:40:07.163Z,979.51
2018-03-01T12:41:07.419Z,979.43
2018-03-01T12:42:07.917Z,979.44
2018-03-01T12:43:08.086Z,979.27
2018-03-01T12:44:08.267Z,979.46
2018-03-01T12:45:08.577Z,979.43
2018-03-01T12:46:09.500Z,979.54
2018-03-01T12:47:09.046Z,979.36
2018-03-01T12:48:09.585Z,979.50
2018-03-01T12:49:09.510Z,979.41
2018-03-01T12:50:10.641Z,979.32
2018-03-01T12:51:10.110Z,979.38
2018-03-01T12:52:10.430Z,979.38
2018-03-01T12:53:10.654Z,979.34
2018-03-01T12:54:12.454Z,979.33
2018-03-01T12:55:11.152Z,979.32
2018-03-01T12:56:11.214Z,979.29
2018-03-01T12:57:11.598Z,979.44
2018-03-01T12:58:12.762Z,979.26
2018-03-01T12:59:12.370Z,979.20
2018-03-01T13:00:12.894Z,979.32
2018-03-01T13:01:12.622Z,979.21
2018-03-01T13:02:13.637Z,979.29
2018-03-01T13:03:15.240Z,979.30
2018-03-01T13:04:13.470Z,979.24
2018-03-01T13:05:13.682Z,979.13
2018-03-01T13:06:13.944Z,979.27